createdAt,value
2022-08-07T00:01:44.588Z,2.38
2022-08-07T00:06:45.489Z,2.95
2022-08-07T00:09:21.082Z,3.88
2022-08-07T00:11:55.586Z,2.20
2022-08-07T00:14:30.260Z,2.83
2022-08-07T00:17:02.603Z,3.88
2022-08-07T00:20:00.536Z,2.58
2022-08-07T00:22:24.470Z,2.33
2022-08-07T00:25:11.058Z,3.00
2022-08-07T00:30:26.820Z,3.10
2022-08-07T00:33:02.259Z,4.40
2022-08-07T00:35:30.408Z,2.60
2022-08-07T00:37:58.900Z,2.70
2022-08-07T00:40:39.476Z,5.07
2022-08-07T00:43:10.625Z,4.35
2022-08-07T00:45:56.150Z,3.80
2022-08-07T00:48:24.974Z,5.88
2022-08-07T00:50:58.443Z,4.07
2022-08-07T00:53:26.973Z,2.47
2022-08-07T00:56:07.499Z,2.30
2022-08-07T00:58:47.475Z,4.60
2022-08-07T01:01:18.702Z,3.20
2022-08-07T01:03:56.981Z,4.47
2022-08-07T01:06:30.049Z,2.53
2022-08-07T01:08:58.361Z,3.03
2022-08-07T01:12:23.578Z,3.22
2022-08-07T01:14:16.608Z,2.45
2022-08-07T01:16:46.866Z,2.42
2022-08-07T01:19:19.197Z,2.75
2022-08-07T01:22:00.850Z,3.90
2022-08-07T01:24:35.629Z,2.67
2022-08-07T01:27:03.599Z,3.78
2022-08-07T01:29:34.210Z,3.88
2022-08-07T01:32:05.297Z,6.57
2022-08-07T01:34:33.431Z,5.82
2022-08-07T01:37:09.533Z,3.35
2022-08-07T01:39:40.666Z,3.15
2022-08-07T01:42:37.604Z,3.95
2022-08-07T01:45:15.823Z,3.72
2022-08-07T01:48:19.897Z,3.30
2022-08-07T01:50:32.837Z,4.22
2022-08-07T01:53:08.562Z,6.97
2022-08-07T01:55:42.312Z,3.40
2022-08-07T01:58:27.188Z,7.20
2022-08-07T02:01:10.307Z,4.45
2022-08-07T02:06:31.737Z,4.57
2022-08-07T02:09:04.918Z,5.50
2022-08-07T02:12:03.342Z,5.50
2022-08-07T02:14:40.341Z,5.28
2022-08-07T02:17:16.673Z,4.63
2022-08-07T02:20:07.846Z,5.57
2022-08-07T02:22:44.907Z,5.13
2022-08-07T02:25:17.715Z,4.28
2022-08-07T02:27:55.888Z,4.43
2022-08-07T02:30:24.369Z,5.88
2022-08-07T02:33:00.808Z,6.40
2022-08-07T02:36:28.806Z,6.65
2022-08-07T02:38:31.830Z,8.38
2022-08-07T02:41:04.078Z,8.77
2022-08-07T02:43:36.071Z,8.93
2022-08-07T02:46:08.537Z,10.10
2022-08-07T02:48:38.051Z,12.75
2022-08-07T02:51:14.199Z,12.85
2022-08-07T02:53:58.018Z,10.63
2022-08-07T02:56:29.676Z,10.68
2022-08-07T02:59:02.382Z,13.05
2022-08-07T03:01:36.084Z,12.35
2022-08-07T03:04:13.047Z,13.85
2022-08-07T03:06:48.241Z,13.70
2022-08-07T03:09:42.132Z,14.40
2022-08-07T03:12:16.133Z,14.45
2022-08-07T03:14:52.245Z,13.02
2022-08-07T03:17:20.187Z,12.90
2022-08-07T03:19:54.639Z,14.93
2022-08-07T03:22:30.213Z,17.02
2022-08-07T03:24:59.925Z,14.27
2022-08-07T03:27:30.784Z,15.40
2022-08-07T03:30:11.141Z,14.82
2022-08-07T03:35:28.128Z,13.43
2022-08-07T03:38:13.293Z,16.00
2022-08-07T03:40:44.242Z,13.05
2022-08-07T03:43:15.351Z,17.08
2022-08-07T03:45:50.431Z,10.90
2022-08-07T03:48:22.663Z,13.88
2022-08-07T03:50:52.132Z,15.13
2022-08-07T03:54:05.848Z,14.30
2022-08-07T03:56:33.372Z,14.38
2022-08-07T03:59:09.898Z,15.23
2022-08-07T04:01:45.555Z,18.05
2022-08-07T04:04:17.634Z,15.43
2022-08-07T04:06:46.723Z,15.13
2022-08-07T04:12:25.107Z,16.15
2022-08-07T04:14:45.970Z,14.55
2022-08-07T04:17:21.154Z,16.95
2022-08-07T04:19:54.152Z,23.52
2022-08-07T04:22:27.522Z,20.92
2022-08-07T04:25:01.187Z,21.15
2022-08-07T04:27:36.029Z,25.00
2022-08-07T04:30:35.553Z,26.27
2022-08-07T04:35:37.303Z,23.67
2022-08-07T04:38:13.186Z,28.05
2022-08-07T04:40:51.913Z,26.45
2022-08-07T04:44:11.344Z,29.00
2022-08-07T04:46:25.795Z,24.42
2022-08-07T04:49:03.398Z,29.45
2022-08-07T04:52:00.950Z,24.17
2022-08-07T04:54:30.165Z,21.85
2022-08-07T04:58:13.823Z,20.90
2022-08-07T05:00:09.733Z,16.95
2022-08-07T05:02:51.334Z,15.10
2022-08-07T05:05:57.435Z,16.85
2022-08-07T05:09:01.218Z,22.02
2022-08-07T05:11:58.849Z,19.38
2022-08-07T05:14:54.859Z,18.13
2022-08-07T05:17:51.522Z,20.63
2022-08-07T05:20:17.190Z,17.98
2022-08-07T05:22:47.696Z,19.02
2022-08-07T05:25:25.844Z,20.63
2022-08-07T05:28:20.874Z,15.43
2022-08-07T05:30:54.535Z,11.85
2022-08-07T05:33:22.895Z,13.77
2022-08-07T05:35:51.797Z,13.50
2022-08-07T05:39:01.046Z,13.40
2022-08-07T05:41:14.399Z,9.98
2022-08-07T05:44:07.758Z,10.55
2022-08-07T05:46:37.673Z,8.60
2022-08-07T05:49:11.764Z,8.05
2022-08-07T05:51:46.619Z,8.18
2022-08-07T05:54:31.129Z,7.28
2022-08-07T05:57:06.650Z,6.07
2022-08-07T05:59:55.767Z,7.03
2022-08-07T06:02:29.604Z,5.93
2022-08-07T06:05:10.903Z,5.28
2022-08-07T06:08:14.847Z,5.07
2022-08-07T06:10:31.853Z,4.22
2022-08-07T06:13:02.252Z,4.63
2022-08-07T06:18:14.024Z,6.32
2022-08-07T06:20:51.074Z,5.00
2022-08-07T06:24:37.936Z,5.60
2022-08-07T06:26:20.866Z,5.32
2022-08-07T06:28:57.942Z,6.50
2022-08-07T06:31:46.516Z,4.43
2022-08-07T06:34:15.014Z,4.32
2022-08-07T06:36:41.946Z,3.30
2022-08-07T06:40:17.253Z,3.88
2022-08-07T06:42:05.158Z,2.90
2022-08-07T06:44:51.939Z,4.40
2022-08-07T06:47:21.056Z,2.67
2022-08-07T06:49:50.790Z,3.45
2022-08-07T06:52:31.574Z,2.85
2022-08-07T06:55:33.950Z,3.95
2022-08-07T06:58:01.186Z,3.70
2022-08-07T07:00:36.762Z,2.33
2022-08-07T07:03:10.917Z,2.20
2022-08-07T07:06:02.706Z,2.40
2022-08-07T07:08:29.393Z,2.55
2022-08-07T07:10:57.908Z,2.33
2022-08-07T07:13:56.373Z,2.00
2022-08-07T07:16:27.529Z,3.58
2022-08-07T07:19:04.186Z,3.17
2022-08-07T07:22:11.600Z,2.85
2022-08-07T07:24:37.364Z,3.33
2022-08-07T07:27:06.642Z,2.15
2022-08-07T07:29:56.880Z,2.78
2022-08-07T07:32:25.650Z,2.58
2022-08-07T07:34:57.667Z,2.10
2022-08-07T07:37:47.269Z,1.60
2022-08-07T07:40:17.754Z,1.92
2022-08-07T07:42:47.347Z,2.25
2022-08-07T07:45:24.630Z,1.80
2022-08-07T07:48:12.875Z,5.90
2022-08-07T07:51:02.095Z,2.72
2022-08-07T07:53:31.051Z,1.67
2022-08-07T07:56:02.961Z,4.68
2022-08-07T07:58:36.889Z,4.25
2022-08-07T08:02:02.806Z,1.88
2022-08-07T08:04:06.099Z,3.58
2022-08-07T08:06:39.530Z,0.90
2022-08-07T08:09:09.717Z,1.85
2022-08-07T08:11:59.720Z,1.35
2022-08-07T08:14:27.521Z,2.53
2022-08-07T08:16:57.479Z,1.38
2022-08-07T08:20:17.445Z,1.65
2022-08-07T08:22:57.201Z,1.20
2022-08-07T08:25:49.201Z,1.77
2022-08-07T08:28:23.906Z,3.35
2022-08-07T08:31:15.826Z,1.10
2022-08-07T08:33:49.552Z,1.73
2022-08-07T08:36:29.723Z,2.00
2022-08-07T08:39:01.742Z,2.08
2022-08-07T08:41:56.768Z,1.20
2022-08-07T08:44:36.301Z,1.00
2022-08-07T08:47:13.861Z,1.25
2022-08-07T08:50:02.645Z,1.35
2022-08-07T08:52:55.392Z,1.20
2022-08-07T08:55:55.046Z,1.10
2022-08-07T08:58:32.937Z,1.42
2022-08-07T09:01:18.733Z,1.45
2022-08-07T09:04:07.768Z,1.15
2022-08-07T09:06:48.295Z,1.67
2022-08-07T09:09:44.683Z,3.03
2022-08-07T09:12:31.102Z,2.05
2022-08-07T09:16:20.695Z,1.70
2022-08-07T09:18:58.616Z,2.08
2022-08-07T09:21:58.070Z,1.13
2022-08-07T09:24:55.541Z,2.22
2022-08-07T09:28:00.168Z,1.58
2022-08-07T09:30:54.884Z,1.70
2022-08-07T09:33:52.588Z,3.22
2022-08-07T09:36:33.553Z,1.65
2022-08-07T09:39:54.420Z,2.78
2022-08-07T09:42:35.198Z,1.92
2022-08-07T09:47:24.545Z,1.67
2022-08-07T09:48:18.990Z,1.40
2022-08-07T09:51:00.522Z,2.10
2022-08-07T09:53:41.373Z,3.92
2022-08-07T09:56:39.329Z,2.03
2022-08-07T10:00:01.160Z,3.65
2022-08-07T10:04:05.163Z,1.77
2022-08-07T10:06:29.376Z,1.52
2022-08-07T10:09:42.951Z,1.30
2022-08-07T10:12:40.396Z,2.60
2022-08-07T10:15:37.636Z,2.15
2022-08-07T10:18:26.455Z,2.25
2022-08-07T10:21:20.051Z,4.85
2022-08-07T10:24:25.952Z,2.05
2022-08-07T10:27:06.719Z,1.60
2022-08-07T10:29:53.191Z,3.78
2022-08-07T10:33:00.209Z,2.00
2022-08-07T10:36:10.933Z,2.20
2022-08-07T10:38:59.808Z,2.72
2022-08-07T10:41:46.575Z,1.35
2022-08-07T10:44:45.159Z,2.00
2022-08-07T10:47:18.138Z,1.75
2022-08-07T10:49:56.878Z,1.92
2022-08-07T10:53:05.212Z,1.90
2022-08-07T10:55:50.954Z,1.60
2022-08-07T10:58:40.374Z,1.70
2022-08-07T11:01:25.565Z,1.70
2022-08-07T11:04:32.115Z,1.67
2022-08-07T11:07:56.321Z,1.52
2022-08-07T11:10:13.883Z,1.50
2022-08-07T11:12:49.206Z,5.63
2022-08-07T11:15:31.469Z,1.98
2022-08-07T11:18:29.326Z,1.92
2022-08-07T11:21:04.323Z,1.77
2022-08-07T11:23:45.426Z,1.45
2022-08-07T11:26:23.646Z,1.60
2022-08-07T11:29:13.179Z,3.47
2022-08-07T11:32:10.876Z,2.35
2022-08-07T11:34:47.748Z,3.05
2022-08-07T11:38:10.516Z,1.73
2022-08-07T11:40:57.524Z,1.42
2022-08-07T11:43:54.943Z,2.22
2022-08-07T11:46:28.254Z,2.30
2022-08-07T11:49:27.574Z,1.50
2022-08-07T11:52:17.942Z,1.98
2022-08-07T11:54:54.861Z,2.33
2022-08-07T11:57:59.551Z,1.70
2022-08-07T12:00:21.212Z,1.60
2022-08-07T12:03:45.370Z,2.38
2022-08-07T12:06:37.461Z,2.08
2022-08-07T12:09:16.412Z,2.08
2022-08-07T12:12:09.958Z,3.33
2022-08-07T12:14:55.860Z,1.55
2022-08-07T12:17:37.353Z,1.50
2022-08-07T12:20:30.110Z,2.72
2022-08-07T12:24:04.936Z,3.15
2022-08-07T12:26:29.836Z,1.45
2022-08-07T12:29:13.119Z,1.92
2022-08-07T12:31:52.880Z,1.60
2022-08-07T12:34:32.859Z,1.70
2022-08-07T12:37:00.867Z,1.27
2022-08-07T12:39:42.291Z,4.10
2022-08-07T12:42:13.362Z,1.08
2022-08-07T12:44:45.040Z,1.58
2022-08-07T12:47:37.437Z,1.52
2022-08-07T12:50:33.843Z,1.88
2022-08-07T12:53:19.278Z,1.30
2022-08-07T12:56:02.319Z,4.22
2022-08-07T12:58:37.539Z,1.48
2022-08-07T13:01:08.897Z,1.88
2022-08-07T13:04:04.720Z,1.63
2022-08-07T13:06:54.373Z,1.27
2022-08-07T13:10:28.304Z,3.08
2022-08-07T13:13:48.591Z,1.30
2022-08-07T13:16:31.188Z,4.55
2022-08-07T13:19:00.664Z,2.90
2022-08-07T13:21:50.522Z,1.45
2022-08-07T13:24:25.804Z,1.40
2022-08-07T13:27:24.872Z,2.38
2022-08-07T13:30:19.405Z,1.70
2022-08-07T13:34:30.668Z,2.92
2022-08-07T13:36:41.844Z,1.90
2022-08-07T13:39:49.122Z,1.25
2022-08-07T13:42:10.196Z,1.15
2022-08-07T13:44:39.513Z,2.20
2022-08-07T13:47:10.114Z,1.55
2022-08-07T13:50:33.871Z,1.63
2022-08-07T13:52:41.244Z,1.45
2022-08-07T13:55:19.660Z,1.50
2022-08-07T13:58:28.212Z,1.40
2022-08-07T14:01:10.918Z,11.13
2022-08-07T14:04:08.132Z,1.30
2022-08-07T14:06:38.572Z,1.40
2022-08-07T14:09:09.944Z,1.20
2022-08-07T14:12:01.217Z,2.55
2022-08-07T14:14:48.393Z,4.78
2022-08-07T14:18:12.175Z,3.10
2022-08-07T14:20:40.657Z,1.23
2022-08-07T14:23:31.559Z,2.22
2022-08-07T14:26:29.896Z,2.95
2022-08-07T14:29:08.582Z,1.30
2022-08-07T14:31:42.334Z,4.50
2022-08-07T14:34:19.865Z,6.63
2022-08-07T14:36:56.324Z,6.35
2022-08-07T14:40:16.512Z,3.08
2022-08-07T14:42:19.699Z,4.22
2022-08-07T14:44:53.725Z,5.88
2022-08-07T14:47:23.359Z,8.23
2022-08-07T14:49:58.086Z,4.13
2022-08-07T14:52:30.853Z,5.05
2022-08-07T14:54:59.414Z,3.40
2022-08-07T14:57:54.390Z,2.83
2022-08-07T15:00:20.828Z,1.65
2022-08-07T15:02:59.720Z,1.70
2022-08-07T15:05:30.305Z,1.67
2022-08-07T15:07:59.965Z,1.50
2022-08-07T15:10:30.139Z,1.45
2022-08-07T15:13:06.331Z,1.88
2022-08-07T15:15:42.087Z,2.20
2022-08-07T15:21:08.394Z,1.70
2022-08-07T15:25:13.410Z,1.40
2022-08-07T15:26:49.391Z,2.00
2022-08-07T15:30:09.146Z,3.28
2022-08-07T15:32:07.940Z,12.57
2022-08-07T15:34:56.933Z,8.80
2022-08-07T15:40:34.371Z,3.67
2022-08-07T15:43:10.502Z,1.40
2022-08-07T15:46:06.875Z,2.08
2022-08-07T15:49:03.440Z,2.53
2022-08-07T15:54:39.427Z,3.03
2022-08-07T15:57:40.053Z,2.00
2022-08-07T16:00:04.166Z,1.25
2022-08-07T16:02:41.246Z,2.22
2022-08-07T16:05:15.895Z,2.22
2022-08-07T16:08:31.178Z,1.88
2022-08-07T16:10:36.698Z,2.13
2022-08-07T16:13:57.955Z,1.63
2022-08-07T16:16:47.584Z,1.70
2022-08-07T16:19:12.663Z,3.00
2022-08-07T16:22:05.083Z,1.70
2022-08-07T16:24:54.948Z,2.75
2022-08-07T16:27:40.337Z,2.35
2022-08-07T16:30:30.411Z,5.03
2022-08-07T16:34:01.334Z,2.08
2022-08-07T16:36:31.175Z,3.13
2022-08-07T16:39:20.982Z,1.92
2022-08-07T16:42:22.420Z,1.70
2022-08-07T16:46:40.620Z,3.00
2022-08-07T16:48:58.430Z,1.42
2022-08-07T16:52:49.288Z,1.98
2022-08-07T16:54:54.140Z,1.83
2022-08-07T16:58:02.232Z,2.95
2022-08-07T17:01:09.130Z,1.70
2022-08-07T17:04:09.924Z,2.20
2022-08-07T17:07:07.847Z,1.35
2022-08-07T17:10:07.971Z,1.50
2022-08-07T17:13:10.507Z,2.03
2022-08-07T17:15:50.675Z,1.60
2022-08-07T17:18:35.384Z,3.20
2022-08-07T17:21:03.847Z,2.72
2022-08-07T17:23:49.206Z,4.28
2022-08-07T17:26:36.863Z,3.72
2022-08-07T17:30:15.779Z,5.63
2022-08-07T17:32:52.261Z,1.70
2022-08-07T17:35:50.062Z,7.93
2022-08-07T17:38:32.090Z,12.50
2022-08-07T17:42:05.007Z,16.70
2022-08-07T17:47:38.133Z,1.73
2022-08-07T17:50:14.468Z,4.22
2022-08-07T17:52:52.618Z,4.75
2022-08-07T17:55:54.779Z,3.17
2022-08-07T17:58:59.516Z,5.47
2022-08-07T18:01:37.277Z,2.80
2022-08-07T18:04:34.788Z,1.55
2022-08-07T18:07:20.299Z,1.55
2022-08-07T18:10:09.945Z,2.35
2022-08-07T18:12:52.252Z,4.60
2022-08-07T18:15:33.111Z,2.70
2022-08-07T18:18:47.271Z,3.65
2022-08-07T18:21:30.094Z,1.50
2022-08-07T18:24:07.642Z,1.70
2022-08-07T18:26:48.193Z,3.17
2022-08-07T18:30:05.748Z,2.05
2022-08-07T18:32:23.894Z,1.85
2022-08-07T18:35:04.658Z,1.52
2022-08-07T18:38:56.385Z,1.60
2022-08-07T18:41:45.285Z,1.55
2022-08-07T18:45:09.113Z,2.35
2022-08-07T18:48:00.788Z,1.60
2022-08-07T18:50:46.997Z,1.75
2022-08-07T18:53:22.011Z,1.67
2022-08-07T18:56:13.314Z,2.58
2022-08-07T18:59:02.220Z,2.85
2022-08-07T19:02:18.591Z,2.47
2022-08-07T19:05:15.082Z,1.77
2022-08-07T19:08:05.475Z,2.17
2022-08-07T19:10:51.523Z,2.25
2022-08-07T19:13:46.310Z,1.98
2022-08-07T19:17:05.086Z,3.33
2022-08-07T19:19:50.200Z,1.52
2022-08-07T19:22:34.088Z,2.22
2022-08-07T19:25:05.601Z,2.85
2022-08-07T19:28:58.565Z,1.98
2022-08-07T19:33:18.749Z,3.08
2022-08-07T19:35:59.998Z,4.90
2022-08-07T19:38:29.229Z,5.32
2022-08-07T19:41:00.615Z,7.70
2022-08-07T19:43:43.483Z,2.60
2022-08-07T19:46:26.809Z,3.10
2022-08-07T19:49:02.948Z,3.90
2022-08-07T19:51:52.611Z,3.03
2022-08-07T19:54:33.036Z,3.45
2022-08-07T19:57:59.840Z,3.63
2022-08-07T20:00:02.126Z,2.85
2022-08-07T20:02:40.156Z,2.50
2022-08-07T20:05:28.120Z,1.73
2022-08-07T20:08:02.291Z,2.08
2022-08-07T20:10:35.177Z,1.65
2022-08-07T20:13:27.004Z,3.40
2022-08-07T20:16:01.810Z,2.53
2022-08-07T20:18:32.684Z,5.30
2022-08-07T20:21:02.304Z,4.00
2022-08-07T20:23:41.070Z,2.97
2022-08-07T20:26:11.149Z,6.10
2022-08-07T20:28:40.088Z,4.65
2022-08-07T20:31:21.648Z,4.50
2022-08-07T20:33:57.356Z,5.75
2022-08-07T20:36:28.371Z,3.90
2022-08-07T20:39:00.471Z,5.57
2022-08-07T20:41:38.544Z,4.35
2022-08-07T20:44:12.465Z,3.30
2022-08-07T20:46:43.866Z,2.58
2022-08-07T20:50:00.833Z,6.22
2022-08-07T20:52:00.647Z,4.50
2022-08-07T20:54:29.933Z,4.07
2022-08-07T20:57:03.757Z,3.55
2022-08-07T21:00:06.310Z,2.80
2022-08-07T21:02:54.226Z,2.85
2022-08-07T21:08:29.318Z,3.15
2022-08-07T21:11:10.705Z,3.40
2022-08-07T21:14:16.631Z,3.45
2022-08-07T21:16:37.836Z,3.67
2022-08-07T21:19:32.229Z,4.22
2022-08-07T21:22:14.754Z,4.13
2022-08-07T21:25:04.698Z,2.78
2022-08-07T21:27:40.019Z,2.55
2022-08-07T21:30:16.765Z,2.33
2022-08-07T21:32:58.371Z,2.53
2022-08-07T21:36:05.906Z,3.28
2022-08-07T21:38:32.650Z,2.65
2022-08-07T21:41:10.838Z,2.72
2022-08-07T21:44:03.630Z,2.33
2022-08-07T21:46:36.533Z,3.35
2022-08-07T21:49:40.560Z,2.45
2022-08-07T21:52:33.353Z,2.65
2022-08-07T21:55:25.036Z,6.53
2022-08-07T21:58:06.776Z,3.22
2022-08-07T22:00:35.435Z,3.38
2022-08-07T22:03:30.821Z,2.78
2022-08-07T22:06:03.838Z,4.53
2022-08-07T22:08:37.370Z,3.38
2022-08-07T22:11:05.869Z,2.88
2022-08-07T22:13:50.504Z,2.95
2022-08-07T22:16:44.689Z,3.15
2022-08-07T22:19:23.623Z,8.38
2022-08-07T22:22:27.853Z,2.75
2022-08-07T22:25:08.190Z,2.97
2022-08-07T22:28:30.858Z,4.30
2022-08-07T22:30:58.565Z,3.70
2022-08-07T22:33:56.253Z,2.60
2022-08-07T22:37:00.014Z,2.83
2022-08-07T22:39:52.713Z,3.47
2022-08-07T22:42:29.303Z,2.58
2022-08-07T22:45:02.320Z,3.42
2022-08-07T22:47:49.411Z,3.28
2022-08-07T22:50:29.034Z,2.58
2022-08-07T22:54:05.453Z,5.28
2022-08-07T22:56:18.843Z,3.28
2022-08-07T22:59:06.599Z,2.53
2022-08-07T23:01:51.840Z,3.30
2022-08-07T23:04:38.552Z,2.55
2022-08-07T23:08:00.802Z,2.50
2022-08-07T23:10:41.484Z,2.67
2022-08-07T23:13:21.123Z,2.75
2022-08-07T23:16:55.254Z,3.35
2022-08-07T23:19:52.212Z,3.28
2022-08-07T23:22:35.062Z,2.95
2022-08-07T23:25:29.437Z,3.40
2022-08-07T23:28:21.983Z,3.13
2022-08-07T23:31:06.674Z,2.80
2022-08-07T23:34:23.925Z,4.18
2022-08-07T23:37:37.831Z,2.58
2022-08-07T23:40:49.218Z,4.20
2022-08-07T23:43:38.999Z,2.65
2022-08-07T23:46:24.033Z,4.70
2022-08-07T23:49:05.339Z,3.17
2022-08-07T23:53:00.257Z,4.70
2022-08-07T23:54:43.882Z,6.05
2022-08-07T23:57:18.650Z,3.40
